Time;durP1;ratioP1;P1;durP2;ratioP2;P2;SDS_P1;SDS_P2;PMS_P1;PMS_P2;Temp;Humidity;BMP_temperature;BMP_pressure;BME280_temperature;BME280_humidity;BME280_pressure;Samples;Min_cycle;Max_cycle;Signal;HPM_P1;HPM_P2
2023/11/04 00:04:47;;;;;;;0.10;0.00;;;1.60;99.90;;;;;;25592468;23;20008;-51
2023/11/04 00:14:49;;;;;;;0.00;0.00;;;1.30;99.90;;;;;;25592599;23;20024;-49
2023/11/04 00:24:53;;;;;;;0.20;0.00;;;1.00;99.90;;;;;;25591645;23;20017;-51
2023/11/04 00:34:55;;;;;;;0.05;0.00;;;0.90;99.90;;;;;;25600656;23;20008;-51
2023/11/04 00:45:16;;;;;;;0.17;0.00;;;0.70;99.90;;;;;;25558742;23;20036;-51
2023/11/04 00:55:38;;;;;;;0.00;0.00;;;0.80;99.90;;;;;;25576554;23;20044;-50
2023/11/04 01:06:00;;;;;;;0.20;0.00;;;0.90;99.90;;;;;;25556398;23;20013;-51
2023/11/04 01:16:21;;;;;;;0.10;0.00;;;0.80;99.90;;;;;;25597492;23;20021;-51
2023/11/04 01:26:43;;;;;;;0.10;0.00;;;0.70;99.90;;;;;;25576064;23;20352;-51
2023/11/04 01:37:04;;;;;;;0.10;0.00;;;0.50;99.90;;;;;;25576098;23;20044;-51
2023/11/04 01:47:26;;;;;;;0.15;0.00;;;0.20;99.90;;;;;;25596417;23;20009;-51
2023/11/04 01:57:48;;;;;;;0.10;0.00;;;0.10;99.90;;;;;;25595962;23;20017;-50
2023/11/04 02:08:09;;;;;;;0.00;0.00;;;0.10;99.90;;;;;;25556922;23;20067;-52
2023/11/04 02:18:31;;;;;;;0.10;0.00;;;0.00;99.90;;;;;;25574149;23;20025;-51
2023/11/04 02:28:53;;;;;;;0.03;0.00;;;0.10;99.90;;;;;;25573906;23;20044;-51
2023/11/04 02:39:14;;;;;;;0.03;0.00;;;0.20;99.90;;;;;;25573373;23;20017;-52
2023/11/04 02:49:36;;;;;;;0.03;0.00;;;-0.10;99.90;;;;;;25593536;23;20067;-50
2023/11/04 02:59:58;;;;;;;0.32;0.00;;;-0.30;99.90;;;;;;25593241;23;20071;-50
2023/11/04 03:10:21;;;;;;;0.20;0.10;;;-0.30;99.90;;;;;;25571787;23;20071;-51
2023/11/04 03:20:42;;;;;;;0.10;0.00;;;0.10;99.90;;;;;;25592419;23;20021;-48
2023/11/04 03:31:04;;;;;;;0.20;0.10;;;0.20;99.90;;;;;;25591346;23;20440;-47
2023/11/04 03:41:26;;;;;;;1.23;0.10;;;0.00;99.90;;;;;;25590690;23;20063;-52
2023/11/04 03:51:48;;;;;;;0.10;0.08;;;-0.10;99.90;;;;;;25591980;23;20044;-48
2023/11/04 04:02:10;;;;;;;0.30;0.20;;;0.00;99.90;;;;;;25590223;23;20020;-48
2023/11/04 04:12:31;;;;;;;0.35;0.05;;;-0.10;99.90;;;;;;25589892;23;20321;-50
2023/11/04 04:22:53;;;;;;;0.10;0.10;;;0.00;99.90;;;;;;25589448;23;20456;-49
2023/11/04 04:33:15;;;;;;;0.40;0.05;;;-0.30;99.90;;;;;;25568757;23;20396;-47
2023/11/04 04:43:37;;;;;;;0.30;0.10;;;0.00;99.90;;;;;;25589403;23;20487;-47
2023/11/04 04:53:59;;;;;;;0.17;0.05;;;-0.10;99.90;;;;;;25589156;23;20021;-50
2023/11/04 05:04:20;;;;;;;0.00;0.00;;;0.00;99.90;;;;;;25589387;23;20337;-47
2023/11/04 05:14:42;;;;;;;0.10;0.03;;;0.00;99.90;;;;;;25591909;23;20529;-47
2023/11/04 05:25:04;;;;;;;0.10;0.00;;;0.10;99.90;;;;;;25597815;23;20040;-52
2023/11/04 05:35:26;;;;;;;1.00;0.00;;;0.00;99.90;;;;;;25595803;23;20718;-48
2023/11/04 05:45:49;;;;;;;0.32;0.10;;;-0.10;99.90;;;;;;25596745;23;20017;-61
2023/11/04 05:56:20;;;;;;;0.20;0.10;;;-0.30;99.90;;;;;;25595320;23;20452;-50
2023/11/04 06:06:41;;;;;;;0.10;0.00;;;-0.40;99.90;;;;;;25596006;23;20469;-48
2023/11/04 06:17:04;;;;;;;0.10;0.00;;;-0.30;99.90;;;;;;25595842;23;20048;-51
2023/11/04 06:27:25;;;;;;;0.10;0.00;;;-0.40;99.90;;;;;;25593990;23;20017;-48
2023/11/04 06:37:47;;;;;;;0.10;0.08;;;-0.30;99.90;;;;;;25593633;23;20317;-47
2023/11/04 06:48:08;;;;;;;0.30;0.10;;;-0.30;99.90;;;;;;25592946;23;20079;-48
2023/11/04 06:58:30;;;;;;;0.10;0.00;;;-0.30;99.90;;;;;;25592946;23;20012;-60
2023/11/04 07:08:34;;;;;;;0.57;0.00;;;0.00;99.90;;;;;;25593873;23;20008;-48
2023/11/04 07:18:37;;;;;;;0.70;0.60;;;0.20;99.90;;;;;;25593653;23;20532;-47
2023/11/04 07:28:40;;;;;;;0.13;0.03;;;0.70;99.90;;;;;;25593322;23;20013;-51
2023/11/04 07:38:42;;;;;;;0.25;0.10;;;1.40;99.90;;;;;;25592515;23;20005;-50
2023/11/04 07:48:44;;;;;;;0.17;0.10;;;2.40;99.90;;;;;;25591151;23;20009;-51
2023/11/04 07:58:45;;;;;;;0.35;0.00;;;3.30;99.90;;;;;;25592045;23;20497;-48
2023/11/04 08:08:47;;;;;;;0.35;0.10;;;4.20;99.90;;;;;;25589497;23;20009;-52
2023/11/04 08:18:49;;;;;;;0.00;0.00;;;5.20;99.90;;;;;;25590560;23;20021;-52
2023/11/04 08:28:52;;;;;;;0.03;0.03;;;6.00;99.90;;;;;;25590471;23;20005;-50
2023/11/04 08:38:53;;;;;;;0.20;0.05;;;6.70;99.90;;;;;;25590380;23;20429;-52
2023/11/04 08:48:55;;;;;;;0.28;0.10;;;7.00;99.90;;;;;;25592841;23;20377;-49
2023/11/04 08:58:57;;;;;;;0.20;0.10;;;7.50;99.90;;;;;;25599030;23;20332;-51
2023/11/04 09:09:00;;;;;;;1.38;0.20;;;8.00;99.90;;;;;;25596736;23;20005;-49
2023/11/04 09:19:02;;;;;;;1.98;0.10;;;8.30;99.90;;;;;;25597954;23;20381;-58
2023/11/04 09:29:04;;;;;;;0.20;0.00;;;8.70;99.90;;;;;;25598106;23;20033;-59
2023/11/04 09:39:07;;;;;;;0.17;0.10;;;8.90;99.90;;;;;;25597584;23;20306;-59
2023/11/04 09:49:08;;;;;;;0.22;0.10;;;9.10;99.90;;;;;;25597317;23;20009;-58
2023/11/04 09:59:10;;;;;;;0.30;0.10;;;9.30;99.90;;;;;;25596692;23;20009;-59
2023/11/04 10:09:15;;;;;;;0.43;0.20;;;9.60;99.90;;;;;;25596450;23;20020;-52
2023/11/04 10:19:18;;;;;;;0.28;0.20;;;10.00;99.90;;;;;;25595813;23;20055;-52
2023/11/04 10:29:20;;;;;;;0.55;0.30;;;10.30;99.90;;;;;;25595568;23;20009;-59
2023/11/04 10:39:23;;;;;;;1.30;0.30;;;10.50;99.90;;;;;;25593684;23;20004;-49
2023/11/04 10:49:43;;;;;;;0.82;0.30;;;9.80;99.90;;;;;;25594560;23;20092;-60
2023/11/04 11:00:13;;;;;;;2.45;0.50;;;8.10;99.90;;;;;;25635590;23;20012;-60
2023/11/04 11:10:19;;;;;;;0.70;0.30;;;8.10;99.90;;;;;;25591940;23;20024;-52
2023/11/04 11:20:33;;;;;;;0.30;0.20;;;8.40;99.90;;;;;;25593426;23;20083;-50
2023/11/04 11:30:39;;;;;;;0.98;0.30;;;9.00;99.90;;;;;;25634404;23;20009;-53
2023/11/04 11:40:41;;;;;;;1.00;0.50;;;9.50;99.90;;;;;;25592074;23;20032;-51
2023/11/04 11:50:43;;;;;;;1.70;0.40;;;10.50;99.90;;;;;;25592611;23;20036;-60
2023/11/04 12:00:45;;;;;;;1.40;0.70;;;10.70;99.90;;;;;;25592466;23;20005;-53
2023/11/04 12:10:47;;;;;;;0.80;0.60;;;10.40;99.90;;;;;;25591928;23;20005;-60
2023/11/04 12:20:49;;;;;;;1.58;0.80;;;10.70;99.90;;;;;;25592782;23;20096;-60
2023/11/04 12:31:04;;;;;;;4.28;1.00;;;11.90;99.90;;;;;;25600208;23;20024;-49
2023/11/04 12:41:09;;;;;;;4.57;0.73;;;11.70;99.90;;;;;;25573437;23;20004;-52
2023/11/04 12:51:11;;;;;;;1.27;0.90;;;11.20;99.90;;;;;;25599035;23;20012;-61
2023/11/04 13:01:12;;;;;;;2.00;1.10;;;11.30;99.90;;;;;;25598825;23;20009;-61
2023/11/04 13:11:14;;;;;;;2.67;1.50;;;10.10;99.90;;;;;;25598604;23;20023;-49
2023/11/04 13:21:17;;;;;;;3.35;1.60;;;8.10;99.90;;;;;;25597882;23;20433;-61
2023/11/04 13:31:19;;;;;;;2.90;1.80;;;7.30;99.90;;;;;;25597487;23;20072;-50
2023/11/04 13:41:21;;;;;;;3.10;1.40;;;6.50;99.90;;;;;;25595567;23;20001;-60
2023/11/04 13:51:25;;;;;;;2.58;1.60;;;6.10;99.90;;;;;;25595290;23;20009;-60
2023/11/04 14:01:27;;;;;;;3.13;1.80;;;6.30;99.90;;;;;;25596806;23;20047;-53
2023/11/04 14:11:29;;;;;;;3.85;2.45;;;6.50;99.90;;;;;;25595175;23;20449;-60
2023/11/04 14:21:31;;;;;;;4.82;2.97;;;6.30;99.90;;;;;;25595801;23;20479;-60
2023/11/04 14:31:33;;;;;;;3.22;2.50;;;6.20;99.90;;;;;;25595576;23;20017;-60
2023/11/04 14:41:35;;;;;;;3.58;1.67;;;5.80;99.90;;;;;;25593150;23;20001;-60
2023/11/04 14:51:36;;;;;;;5.78;2.60;;;5.50;99.90;;;;;;25592691;23;20096;-59
2023/11/04 15:01:46;;;;;;;3.63;2.47;;;5.50;99.90;;;;;;25594117;23;20005;-60
2023/11/04 15:11:48;;;;;;;5.23;3.47;;;5.20;99.90;;;;;;25634231;23;20056;-60
2023/11/04 15:21:50;;;;;;;7.88;2.08;;;5.00;99.90;;;;;;25593336;23;20440;-60
2023/11/04 15:31:52;;;;;;;2.63;1.15;;;4.90;99.90;;;;;;25593485;23;20047;-49
2023/11/04 15:41:54;;;;;;;7.65;1.30;;;4.80;99.90;;;;;;25593017;23;20001;-60
2023/11/04 15:51:55;;;;;;;1.42;0.50;;;4.70;99.90;;;;;;25592343;23;20124;-51
2023/11/04 16:01:57;;;;;;;5.32;0.70;;;4.60;99.90;;;;;;25592231;23;20001;-52
2023/11/04 16:11:59;;;;;;;2.42;0.75;;;4.60;99.90;;;;;;25593038;23;20004;-50
2023/11/04 16:22:03;;;;;;;3.00;0.50;;;4.60;99.90;;;;;;25592637;23;20017;-51
2023/11/04 16:32:06;;;;;;;3.25;0.80;;;4.60;99.90;;;;;;25593566;23;20387;-50
2023/11/04 16:42:08;;;;;;;4.60;0.90;;;4.60;99.90;;;;;;25590898;23;20329;-50
2023/11/04 16:52:10;;;;;;;2.92;1.23;;;4.50;99.90;;;;;;25592439;23;20440;-49
2023/11/04 17:02:12;;;;;;;5.40;1.70;;;4.40;99.90;;;;;;25592136;23;20055;-51
2023/11/04 17:12:13;;;;;;;4.65;2.60;;;4.40;99.90;;;;;;25594895;23;20069;-52
2023/11/04 17:22:15;;;;;;;5.45;2.75;;;4.30;99.90;;;;;;25598957;23;20020;-53
2023/11/04 17:32:17;;;;;;;5.43;3.20;;;4.20;99.90;;;;;;25598892;23;20008;-53
2023/11/04 17:42:20;;;;;;;19.83;3.60;;;4.20;99.90;;;;;;25596686;23;20060;-53
2023/11/04 17:52:23;;;;;;;7.00;3.50;;;4.20;99.90;;;;;;25598126;23;20008;-51
2023/11/04 18:02:25;;;;;;;36.65;3.50;;;4.20;99.90;;;;;;25597598;23;20005;-53
2023/11/04 18:12:27;;;;;;;3.22;0.95;;;4.10;99.90;;;;;;25596138;23;20099;-53
2023/11/04 18:22:29;;;;;;;1.92;0.52;;;4.10;99.90;;;;;;25596630;23;20017;-51
2023/11/04 18:32:30;;;;;;;101.35;4.07;;;4.10;99.90;;;;;;25596695;23;20005;-52
2023/11/04 18:42:32;;;;;;;0.40;0.30;;;4.00;99.90;;;;;;25595752;23;20337;-50
2023/11/04 18:52:36;;;;;;;0.22;0.00;;;4.00;99.90;;;;;;25594312;23;20403;-49
2023/11/04 19:02:38;;;;;;;0.00;0.00;;;3.90;99.90;;;;;;25593588;23;20028;-52
2023/11/04 19:12:42;;;;;;;0.10;0.00;;;3.50;99.90;;;;;;25594768;23;20325;-52
2023/11/04 19:22:44;;;;;;;0.60;0.00;;;3.30;99.90;;;;;;25593904;23;20017;-52
2023/11/04 19:32:45;;;;;;;0.20;0.00;;;3.10;99.90;;;;;;25567205;23;20004;-48
2023/11/04 19:42:47;;;;;;;0.00;0.00;;;3.00;99.90;;;;;;25593647;23;20377;-52
2023/11/04 19:52:50;;;;;;;0.47;0.00;;;2.90;99.90;;;;;;25593474;23;20090;-51
2023/11/04 20:02:53;;;;;;;0.10;0.00;;;2.90;99.90;;;;;;25593298;23;20005;-51
2023/11/04 20:12:57;;;;;;;0.20;0.00;;;3.10;99.90;;;;;;25592998;23;20001;-52
2023/11/04 20:22:59;;;;;;;0.40;0.20;;;3.30;99.90;;;;;;25593203;23;20040;-49
2023/11/04 20:33:02;;;;;;;1.70;0.10;;;3.60;99.90;;;;;;25592907;23;20056;-52
2023/11/04 20:43:07;;;;;;;0.00;0.00;;;3.70;99.90;;;;;;25594676;23;20009;-52
2023/11/04 20:53:10;;;;;;;0.00;0.00;;;3.20;99.90;;;;;;25600390;23;20005;-52
2023/11/04 21:03:14;;;;;;;0.50;0.00;;;3.30;99.90;;;;;;25599119;23;20055;-52
2023/11/04 21:13:16;;;;;;;1.05;0.05;;;3.70;99.90;;;;;;25599134;23;20005;-51
2023/11/04 21:23:18;;;;;;;0.20;0.00;;;3.90;99.90;;;;;;25640451;23;20005;-51
2023/11/04 21:33:20;;;;;;;0.10;0.00;;;4.20;99.90;;;;;;25598855;23;20012;-50
2023/11/04 21:43:22;;;;;;;0.35;0.00;;;4.30;99.90;;;;;;25598435;23;20036;-50
2023/11/04 21:53:24;;;;;;;0.00;0.00;;;4.30;99.90;;;;;;25598050;23;20104;-52
2023/11/04 22:03:25;;;;;;;1.85;0.00;;;4.40;99.90;;;;;;25597208;23;20005;-49
2023/11/04 22:13:27;;;;;;;0.22;0.03;;;4.50;99.90;;;;;;25597142;23;20055;-52
2023/11/04 22:23:29;;;;;;;1.35;0.00;;;4.60;99.90;;;;;;25639489;23;20009;-52
2023/11/04 22:33:32;;;;;;;0.05;0.00;;;4.60;99.90;;;;;;25596856;23;20075;-50
2023/11/04 22:43:33;;;;;;;0.00;0.00;;;4.70;99.90;;;;;;25596558;23;20290;-47
2023/11/04 22:53:35;;;;;;;0.00;0.00;;;4.70;99.90;;;;;;25595855;23;20001;-50
2023/11/04 23:03:37;;;;;;;0.00;0.00;;;4.60;99.90;;;;;;25595569;23;20023;-51
2023/11/04 23:13:39;;;;;;;1.65;0.00;;;3.70;99.90;;;;;;25594254;23;20017;-51
2023/11/04 23:23:41;;;;;;;0.00;0.00;;;3.30;99.90;;;;;;25635829;23;20001;-50
2023/11/04 23:33:43;;;;;;;1.45;0.00;;;3.60;99.90;;;;;;25594396;23;20016;-51
2023/11/04 23:43:44;;;;;;;0.00;0.00;;;3.70;99.90;;;;;;25592486;23;20001;-48
2023/11/04 23:53:46;;;;;;;0.00;0.00;;;3.40;99.90;;;;;;25593678;23;20005;-50
